Station Historical Data
Daily Summary for June 25, 2017 Units:  English    Metric   Both
« Previous Day
Next Day »
Daily Weekly Monthly Yearly Custom
  High: Low: Average:
Temperature: 73.9 °F 59.2 °F 66.8 °F
Dew Point: 58.5 °F 49.1 °F 54.3 °F
Humidity: 86% 47% 65%
Wind Speed: 16.0mph 0.0mph 5.1mph
Wind Gust: 25.0mph - -
Wind- - WSW
Pressure: 29.98 in 29.91 in -
Precipitation: 0.00 in    
Historical Graphs
 
 
Tabular Data for June 25, 2017
Time Temperature Dew Point Pressure Wind Wind Speed Wind Gust Humidity Rainfall Rate (Hourly)
00:04 65.2 °F 55.6 °F 29.91 in Calm   2.0 mph 71% 0.00 in
00:09 65.4 °F 55.7 °F 29.91 in Calm   3.0 mph 71% 0.00 in
00:14 65.5 °F 55.5 °F 29.92 in SW 2.0 mph 3.0 mph 70% 0.00 in
00:19 65.5 °F 55.1 °F 29.92 in Calm   2.0 mph 69% 0.00 in
00:24 65.5 °F 55.1 °F 29.92 in Calm     69% 0.00 in
00:29 65.5 °F 54.7 °F 29.92 in SW 1.0 mph 5.0 mph 68% 0.00 in
00:34 65.4 °F 54.6 °F 29.92 in WSW 1.0 mph 3.0 mph 68% 0.00 in
00:39 65.5 °F 54.2 °F 29.92 in WSW 3.0 mph 3.0 mph 67% 0.00 in
00:44 65.5 °F 54.7 °F 29.92 in Calm   3.0 mph 68% 0.00 in
00:49 65.4 °F 54.2 °F 29.92 in WSW 1.0 mph 4.0 mph 67% 0.00 in
00:54 65.3 °F 54.5 °F 29.92 in SW 1.0 mph 4.0 mph 68% 0.00 in
00:59 65.1 °F 54.3 °F 29.92 in SW 2.0 mph 5.0 mph 68% 0.00 in
01:05 65.1 °F 54.7 °F 29.92 in SW 2.0 mph 5.0 mph 69% 0.00 in
01:10 65.2 °F 54.8 °F 29.92 in SSW 3.0 mph 6.0 mph 69% 0.00 in
01:15 65.2 °F 55.6 °F 29.92 in SW 1.0 mph 7.0 mph 71% 0.00 in
01:20 64.9 °F 55.7 °F 29.92 in SW 5.0 mph 7.0 mph 72% 0.00 in
01:25 64.5 °F 55.7 °F 29.92 in SSW 1.0 mph 7.0 mph 73% 0.00 in
01:30 63.9 °F 55.8 °F 29.93 in SW 2.0 mph 7.0 mph 75% 0.00 in
01:35 63.7 °F 56.0 °F 29.93 in SW 2.0 mph 6.0 mph 76% 0.00 in
01:40 63.4 °F 56.1 °F 29.93 in SW 2.0 mph 5.0 mph 77% 0.00 in
01:45 63.3 °F 56.3 °F 29.93 in Calm   4.0 mph 78% 0.00 in
01:50 63.4 °F 56.8 °F 29.93 in WSW 2.0 mph 4.0 mph 79% 0.00 in
01:55 63.4 °F 56.8 °F 29.93 in Calm   5.0 mph 79% 0.00 in
02:00 63.2 °F 56.6 °F 29.92 in WSW 1.0 mph 5.0 mph 79% 0.00 in
02:05 62.8 °F 56.5 °F 29.93 in WSW 1.0 mph 3.0 mph 80% 0.00 in
02:10 62.7 °F 56.8 °F 29.93 in SW 2.0 mph 4.0 mph 81% 0.00 in
02:15 62.5 °F 56.6 °F 29.93 in Calm   4.0 mph 81% 0.00 in
02:20 62.4 °F 56.5 °F 29.93 in SSW 1.0 mph 4.0 mph 81% 0.00 in
02:25 62.3 °F 56.4 °F 29.93 in SW 1.0 mph 5.0 mph 81% 0.00 in
02:30 62.6 °F 56.7 °F 29.93 in SW 2.0 mph 6.0 mph 81% 0.00 in
02:35 62.5 °F 56.6 °F 29.93 in SW 2.0 mph 6.0 mph 81% 0.00 in
02:40 62.4 °F 56.5 °F 29.93 in Calm   3.0 mph 81% 0.00 in
02:45 62.0 °F 56.1 °F 29.92 in WSW 1.0 mph 3.0 mph 81% 0.00 in
02:50 61.7 °F 56.1 °F 29.93 in Calm     82% 0.00 in
02:55 61.3 °F 55.8 °F 29.93 in Calm     82% 0.00 in
03:00 61.0 °F 55.8 °F 29.93 in Calm   1.0 mph 83% 0.00 in
03:05 60.8 °F 55.6 °F 29.93 in Calm   4.0 mph 83% 0.00 in
03:10 60.6 °F 55.4 °F 29.93 in SW 1.0 mph 4.0 mph 83% 0.00 in
03:15 60.2 °F 55.0 °F 29.92 in SSW 1.0 mph 3.0 mph 83% 0.00 in
03:20 59.9 °F 54.7 °F 29.93 in South 2.0 mph 3.0 mph 83% 0.00 in
03:25 59.6 °F 54.4 °F 29.93 in Calm   4.0 mph 83% 0.00 in
03:30 59.4 °F 54.6 °F 29.93 in South 1.0 mph 4.0 mph 84% 0.00 in
03:35 59.4 °F 54.6 °F 29.92 in SSE 2.0 mph 4.0 mph 84% 0.00 in
03:40 59.2 °F 54.4 °F 29.92 in SSE 1.0 mph 3.0 mph 84% 0.00 in
03:45 59.2 °F 54.4 °F 29.93 in Calm   3.0 mph 84% 0.00 in
03:50 59.2 °F 54.7 °F 29.92 in Calm   5.0 mph 85% 0.00 in
03:55 59.2 °F 54.7 °F 29.92 in South 2.0 mph 5.0 mph 85% 0.00 in
04:00 59.2 °F 54.7 °F 29.92 in South 2.0 mph 4.0 mph 85% 0.00 in
04:05 59.3 °F 54.8 °F 29.92 in Calm   3.0 mph 85% 0.00 in
04:10 59.5 °F 55.3 °F 29.92 in SSW 2.0 mph 4.0 mph 86% 0.00 in
04:15 59.8 °F 55.3 °F 29.92 in Calm   5.0 mph 85% 0.00 in
04:20 59.8 °F 55.3 °F 29.92 in Calm   3.0 mph 85% 0.00 in
04:25 59.6 °F 55.1 °F 29.92 in Calm     85% 0.00 in
04:30 59.8 °F 55.6 °F 29.92 in Calm     86% 0.00 in
04:35 60.9 °F 56.4 °F 29.92 in WSW 2.0 mph 10.0 mph 85% 0.00 in
04:40 62.3 °F 56.0 °F 29.93 in SW 5.0 mph 11.0 mph 80% 0.00 in
04:45 62.9 °F 55.2 °F 29.93 in WSW 6.0 mph 10.0 mph 76% 0.00 in
04:50 62.9 °F 54.5 °F 29.93 in WSW 6.0 mph 9.0 mph 74% 0.00 in
04:55 62.9 °F 54.5 °F 29.92 in West 4.0 mph 9.0 mph 74% 0.00 in
05:00 62.8 °F 54.4 °F 29.92 in West 4.0 mph 8.0 mph 74% 0.00 in
05:05 62.6 °F 54.6 °F 29.92 in WSW 3.0 mph 8.0 mph 75% 0.00 in
05:10 62.6 °F 54.6 °F 29.92 in West 5.0 mph 6.0 mph 75% 0.00 in
05:15 62.4 °F 54.7 °F 29.93 in West 2.0 mph 5.0 mph 76% 0.00 in
05:20 62.3 °F 55.0 °F 29.93 in West 2.0 mph 4.0 mph 77% 0.00 in
05:25 62.2 °F 54.9 °F 29.93 in WSW 2.0 mph 5.0 mph 77% 0.00 in
05:30 62.1 °F 55.2 °F 29.93 in WSW 2.0 mph 5.0 mph 78% 0.00 in
05:35 62.1 °F 55.2 °F 29.93 in WSW 2.0 mph 5.0 mph 78% 0.00 in
05:40 62.0 °F 55.4 °F 29.93 in West 2.0 mph 7.0 mph 79% 0.00 in
05:45 61.9 °F 55.3 °F 29.93 in West 3.0 mph 6.0 mph 79% 0.00 in
05:50 62.2 °F 55.3 °F 29.93 in West 4.0 mph 10.0 mph 78% 0.00 in
05:54 62.6 °F 54.9 °F 29.93 in WSW 4.0 mph 10.0 mph 76% 0.00 in
06:00 62.9 °F 55.2 °F 29.93 in WSW 2.0 mph 7.0 mph 76% 0.00 in
06:05 62.7 °F 55.0 °F 29.94 in Calm   6.0 mph 76% 0.00 in
06:10 62.9 °F 55.6 °F 29.93 in West 3.0 mph 7.0 mph 77% 0.00 in
06:15 62.8 °F 55.8 °F 29.93 in West 3.0 mph 7.0 mph 78% 0.00 in
06:20 62.9 °F 55.9 °F 29.93 in West 3.0 mph 7.0 mph 78% 0.00 in
06:24 62.9 °F 55.9 °F 29.93 in West 3.0 mph 7.0 mph 78% 0.00 in
06:30 62.8 °F 56.2 °F 29.93 in West 3.0 mph 8.0 mph 79% 0.00 in
06:35 62.6 °F 56.0 °F 29.93 in West 4.0 mph 8.0 mph 79% 0.00 in
06:40 62.7 °F 56.1 °F 29.94 in West 3.0 mph 6.0 mph 79% 0.00 in
06:45 62.8 °F 55.8 °F 29.94 in WSW 3.0 mph 5.0 mph 78% 0.00 in
06:50 63.0 °F 55.7 °F 29.94 in WSW 3.0 mph 7.0 mph 77% 0.00 in
06:55 63.1 °F 55.8 °F 29.94 in West 3.0 mph 8.0 mph 77% 0.00 in
07:00 63.2 °F 55.9 °F 29.94 in WSW 2.0 mph 6.0 mph 77% 0.00 in
07:05 63.4 °F 55.7 °F 29.94 in WNW 2.0 mph 7.0 mph 76% 0.00 in
07:10 63.7 °F 55.6 °F 29.94 in West 4.0 mph 5.0 mph 75% 0.00 in
07:15 64.0 °F 55.5 °F 29.94 in West 1.0 mph 5.0 mph 74% 0.00 in
07:20 64.5 °F 55.7 °F 29.94 in WSW 3.0 mph 6.0 mph 73% 0.00 in
07:25 64.9 °F 54.9 °F 29.94 in WSW 3.0 mph 7.0 mph 70% 0.00 in
07:30 65.2 °F 54.8 °F 29.94 in West 3.0 mph 9.0 mph 69% 0.00 in
07:35 65.3 °F 54.9 °F 29.94 in West 4.0 mph 9.0 mph 69% 0.00 in
07:40 65.4 °F 54.2 °F 29.94 in West 5.0 mph 10.0 mph 67% 0.00 in
07:45 65.5 °F 54.7 °F 29.95 in WSW 5.0 mph 11.0 mph 68% 0.00 in
07:49 66.1 °F 54.8 °F 29.95 in West 5.0 mph 13.0 mph 67% 0.00 in
07:54 66.7 °F 55.0 °F 29.95 in West 3.0 mph 10.0 mph 66% 0.00 in
08:00 66.7 °F 55.0 °F 29.95 in SW 7.0 mph 11.0 mph 66% 0.00 in
08:05 66.2 °F 54.9 °F 29.95 in West 3.0 mph 10.0 mph 67% 0.00 in
08:10 66.5 °F 55.2 °F 29.95 in WSW 5.0 mph 9.0 mph 67% 0.00 in
08:14 67.0 °F 55.7 °F 29.95 in WSW 5.0 mph 9.0 mph 67% 0.00 in
08:20 67.3 °F 55.1 °F 29.95 in WSW 4.0 mph 9.0 mph 65% 0.00 in
08:25 67.4 °F 54.8 °F 29.96 in WSW 5.0 mph 11.0 mph 64% 0.00 in
08:30 67.9 °F 55.7 °F 29.95 in WSW 5.0 mph 11.0 mph 65% 0.00 in
08:35 68.0 °F 54.9 °F 29.95 in WSW 5.0 mph 9.0 mph 63% 0.00 in
08:40 68.1 °F 54.1 °F 29.96 in WNW 2.0 mph 11.0 mph 61% 0.00 in
08:45 68.2 °F 54.7 °F 29.96 in WSW 3.0 mph 11.0 mph 62% 0.00 in
08:49 68.5 °F 55.0 °F 29.96 in WSW 5.0 mph 11.0 mph 62% 0.00 in
08:55 68.4 °F 54.4 °F 29.96 in WSW 6.0 mph 14.0 mph 61% 0.00 in
09:00 68.6 °F 54.6 °F 29.96 in SW 13.0 mph 13.0 mph 61% 0.00 in
09:04 68.7 °F 54.7 °F 29.96 in SW 8.0 mph 15.0 mph 61% 0.00 in
09:09 68.9 °F 54.0 °F 29.96 in WSW 4.0 mph 13.0 mph 59% 0.00 in
09:14 68.9 °F 53.5 °F 29.96 in WSW 7.0 mph 13.0 mph 58% 0.00 in
09:19 68.7 °F 52.8 °F 29.96 in West 7.0 mph 13.0 mph 57% 0.00 in
09:25 69.1 °F 53.2 °F 29.96 in NNW 9.0 mph 13.0 mph 57% 0.00 in
09:30 69.4 °F 53.0 °F 29.96 in WNW 4.0 mph 14.0 mph 56% 0.00 in
09:35 69.4 °F 52.0 °F 29.96 in SW 7.0 mph 16.0 mph 54% 0.00 in
09:40 69.5 °F 52.1 °F 29.96 in WSW 10.0 mph 15.0 mph 54% 0.00 in
09:44 69.8 °F 52.4 °F 29.96 in WSW 7.0 mph 15.0 mph 54% 0.00 in
09:50 70.2 °F 53.8 °F 29.96 in WSW 7.0 mph 14.0 mph 56% 0.00 in
09:55 70.5 °F 51.5 °F 29.97 in WSW 7.0 mph 14.0 mph 51% 0.00 in
10:00 70.8 °F 52.3 °F 29.97 in West 6.0 mph 12.0 mph 52% 0.00 in
10:05 70.8 °F 51.2 °F 29.97 in WSW 6.0 mph 14.0 mph 50% 0.00 in
10:10 70.3 °F 50.2 °F 29.97 in WSW 7.0 mph 16.0 mph 49% 0.00 in
10:15 70.3 °F 51.3 °F 29.97 in WSW 8.0 mph 16.0 mph 51% 0.00 in
10:19 70.4 °F 51.9 °F 29.97 in West 4.0 mph 13.0 mph 52% 0.00 in
10:24 70.5 °F 52.5 °F 29.97 in West 5.0 mph 13.0 mph 53% 0.00 in
10:29 71.0 °F 54.5 °F 29.97 in West 10.0 mph 14.0 mph 56% 0.00 in
10:34 71.0 °F 54.5 °F 29.97 in West 10.0 mph 12.0 mph 56% 0.00 in
10:39 70.6 °F 52.1 °F 29.97 in WSW 7.0 mph 17.0 mph 52% 0.00 in
10:45 70.3 °F 52.9 °F 29.97 in WSW 8.0 mph 17.0 mph 54% 0.00 in
10:50 70.5 °F 54.0 °F 29.97 in SW 8.0 mph 18.0 mph 56% 0.00 in
10:55 70.6 °F 53.1 °F 29.97 in SW 10.0 mph 16.0 mph 54% 0.00 in
11:00 70.5 °F 52.5 °F 29.97 in WSW 3.0 mph 18.0 mph 53% 0.00 in
11:05 70.6 °F 50.5 °F 29.97 in WSW 9.0 mph 19.0 mph 49% 0.00 in
11:10 70.3 °F 50.8 °F 29.97 in WSW 8.0 mph 19.0 mph 50% 0.00 in
11:14 70.0 °F 49.4 °F 29.97 in WSW 9.0 mph 16.0 mph 48% 0.00 in
11:19 70.5 °F 51.0 °F 29.97 in NNW 5.0 mph 16.0 mph 50% 0.00 in
11:25 71.5 °F 53.5 °F 29.97 in WNW 7.0 mph 15.0 mph 53% 0.00 in
11:29 71.1 °F 52.6 °F 29.97 in SSW 9.0 mph 16.0 mph 52% 0.00 in
11:34 71.1 °F 54.1 °F 29.97 in SW 16.0 mph 17.0 mph 55% 0.00 in
11:39 70.6 °F 54.6 °F 29.97 in WSW 9.0 mph 17.0 mph 57% 0.00 in
11:44 71.1 °F 57.0 °F 29.96 in WSW 8.0 mph 17.0 mph 61% 0.00 in
11:50 70.8 °F 55.3 °F 29.96 in WSW 7.0 mph 15.0 mph 58% 0.00 in
11:55 71.0 °F 55.5 °F 29.96 in WNW 9.0 mph 14.0 mph 58% 0.00 in
12:00 70.4 °F 55.4 °F 29.96 in WSW 10.0 mph 17.0 mph 59% 0.00 in
12:05 71.1 °F 55.6 °F 29.96 in SSW 6.0 mph 16.0 mph 58% 0.00 in
12:09 70.4 °F 54.9 °F 29.96 in West 8.0 mph 16.0 mph 58% 0.00 in
12:14 71.0 °F 56.4 °F 29.96 in West 4.0 mph 21.0 mph 60% 0.00 in
12:19 71.6 °F 57.0 °F 29.96 in WSW 5.0 mph 16.0 mph 60% 0.00 in
12:24 71.1 °F 57.0 °F 29.97 in WSW 9.0 mph 15.0 mph 61% 0.00 in
12:29 71.1 °F 57.9 °F 29.97 in WSW 7.0 mph 15.0 mph 63% 0.00 in
12:34 71.4 °F 58.1 °F 29.97 in South 11.0 mph 18.0 mph 63% 0.00 in
12:39 71.4 °F 58.1 °F 29.96 in WSW 8.0 mph 18.0 mph 63% 0.00 in
12:44 71.3 °F 58.5 °F 29.96 in WSW 8.0 mph 16.0 mph 64% 0.00 in
12:49 71.2 °F 57.5 °F 29.96 in WSW 9.0 mph 18.0 mph 62% 0.00 in
12:55 70.8 °F 57.6 °F 29.95 in WSW 6.0 mph 18.0 mph 63% 0.00 in
13:00 71.3 °F 58.1 °F 29.95 in SW 6.0 mph 15.0 mph 63% 0.00 in
13:04 70.8 °F 55.8 °F 29.95 in SW 10.0 mph 15.0 mph 59% 0.00 in
13:09 70.7 °F 54.2 °F 29.94 in WSW 8.0 mph 17.0 mph 56% 0.00 in
13:14 71.0 °F 54.0 °F 29.95 in WSW 9.0 mph 17.0 mph 55% 0.00 in
13:19 71.4 °F 53.4 °F 29.94 in WSW 9.0 mph 17.0 mph 53% 0.00 in
13:25 72.0 °F 54.9 °F 29.95 in WSW 8.0 mph 17.0 mph 55% 0.00 in
13:30 71.8 °F 55.3 °F 29.94 in WSW 8.0 mph 18.0 mph 56% 0.00 in
13:34 72.1 °F 56.0 °F 29.94 in WSW 9.0 mph 18.0 mph 57% 0.00 in
13:40 72.1 °F 56.0 °F 29.94 in SW 8.0 mph 20.0 mph 57% 0.00 in
13:45 71.6 °F 54.1 °F 29.94 in West 8.0 mph 17.0 mph 54% 0.00 in
13:49 71.3 °F 53.8 °F 29.94 in SW 9.0 mph 18.0 mph 54% 0.00 in
13:54 70.4 °F 54.9 °F 29.94 in West 9.0 mph 19.0 mph 58% 0.00 in
13:59 71.2 °F 55.2 °F 29.94 in WSW 3.0 mph 17.0 mph 57% 0.00 in
14:04 72.7 °F 54.6 °F 29.94 in WSW 7.0 mph 17.0 mph 53% 0.00 in
14:09 73.1 °F 54.9 °F 29.93 in WSW 7.0 mph 16.0 mph 53% 0.00 in
14:15 73.2 °F 55.0 °F 29.93 in WSW 8.0 mph 18.0 mph 53% 0.00 in
14:20 72.3 °F 54.7 °F 29.93 in WSW 8.0 mph 18.0 mph 54% 0.00 in
14:25 72.6 °F 53.4 °F 29.93 in WSW 8.0 mph 16.0 mph 51% 0.00 in
14:30 72.4 °F 54.8 °F 29.93 in SSE 5.0 mph 14.0 mph 54% 0.00 in
14:34 72.7 °F 51.9 °F 29.94 in SW 8.0 mph 16.0 mph 48% 0.00 in
14:39 72.6 °F 52.3 °F 29.94 in SW 7.0 mph 18.0 mph 49% 0.00 in
14:44 72.6 °F 52.3 °F 29.93 in WSW 6.0 mph 16.0 mph 49% 0.00 in
14:49 72.8 °F 52.0 °F 29.93 in SW 7.0 mph 18.0 mph 48% 0.00 in
14:54 72.4 °F 54.3 °F 29.92 in SE 8.0 mph 20.0 mph 53% 0.00 in
14:59 72.4 °F 53.8 °F 29.93 in WSW 10.0 mph 22.0 mph 52% 0.00 in
15:04 72.7 °F 54.6 °F 29.92 in WSW 10.0 mph 22.0 mph 53% 0.00 in
15:09 73.0 °F 55.9 °F 29.92 in WSW 9.0 mph 18.0 mph 55% 0.00 in
15:15 73.0 °F 56.4 °F 29.92 in SSW 10.0 mph 16.0 mph 56% 0.00 in
15:19 72.8 °F 55.2 °F 29.92 in WSW 10.0 mph 23.0 mph 54% 0.00 in
15:25 72.9 °F 55.3 °F 29.92 in SSW 7.0 mph 25.0 mph 54% 0.00 in
15:29 72.9 °F 54.2 °F 29.92 in WSW 11.0 mph 25.0 mph 52% 0.00 in
15:34 73.1 °F 54.4 °F 29.92 in WSW 10.0 mph 24.0 mph 52% 0.00 in
15:40 72.9 °F 52.1 °F 29.92 in WSW 11.0 mph 25.0 mph 48% 0.00 in
15:44 73.9 °F 54.1 °F 29.92 in West 11.0 mph 25.0 mph 50% 0.00 in
15:50 73.4 °F 53.6 °F 29.92 in West 10.0 mph 24.0 mph 50% 0.00 in
15:55 72.4 °F 52.2 °F 29.92 in WSW 14.0 mph 25.0 mph 49% 0.00 in
15:59 70.7 °F 53.2 °F 29.92 in WSW 11.0 mph 25.0 mph 54% 0.00 in
16:04 70.5 °F 55.0 °F 29.94 in WSW 10.0 mph 22.0 mph 58% 0.00 in
16:09 68.5 °F 53.1 °F 29.94 in WNW 8.0 mph 21.0 mph 58% 0.00 in
16:14 68.7 °F 54.3 °F 29.94 in WNW 7.0 mph 15.0 mph 60% 0.00 in
16:19 69.7 °F 53.3 °F 29.93 in NNW 6.0 mph 14.0 mph 56% 0.00 in
16:24 69.5 °F 52.6 °F 29.94 in West 10.0 mph 17.0 mph 55% 0.00 in
16:29 69.8 °F 52.9 °F 29.94 in WNW 9.0 mph 17.0 mph 55% 0.00 in
16:34 70.2 °F 53.8 °F 29.94 in WNW 8.0 mph 15.0 mph 56% 0.00 in
16:39 69.8 °F 52.9 °F 29.94 in West 6.0 mph 15.0 mph 55% 0.00 in
16:44 70.1 °F 53.2 °F 29.94 in West 6.0 mph 10.0 mph 55% 0.00 in
16:49 70.6 °F 53.6 °F 29.93 in West 7.0 mph 10.0 mph 55% 0.00 in
16:54 70.8 °F 53.8 °F 29.93 in West 4.0 mph 13.0 mph 55% 0.00 in
16:59 70.9 °F 52.9 °F 29.93 in West 6.0 mph 15.0 mph 53% 0.00 in
17:04 69.9 °F 52.0 °F 29.93 in WSW 8.0 mph 16.0 mph 53% 0.00 in
17:09 69.5 °F 51.6 °F 29.94 in WSW 8.0 mph 16.0 mph 53% 0.00 in
17:14 69.0 °F 52.2 °F 29.94 in WSW 7.0 mph 15.0 mph 55% 0.00 in
17:19 69.4 °F 52.0 °F 29.94 in WSW 9.0 mph 19.0 mph 54% 0.00 in
17:24 69.7 °F 52.8 °F 29.94 in WSW 7.0 mph 16.0 mph 55% 0.00 in
17:29 70.0 °F 51.0 °F 29.94 in West 10.0 mph 15.0 mph 51% 0.00 in
17:34 70.3 °F 49.1 °F 29.94 in NW 4.0 mph 13.0 mph 47% 0.00 in
17:39 69.3 °F 49.9 °F 29.94 in West 7.0 mph 16.0 mph 50% 0.00 in
17:44 68.4 °F 50.1 °F 29.94 in West 7.0 mph 15.0 mph 52% 0.00 in
17:49 68.2 °F 50.4 °F 29.94 in WNW 13.0 mph 16.0 mph 53% 0.00 in
17:54 68.6 °F 51.3 °F 29.94 in WSW 6.0 mph 13.0 mph 54% 0.00 in
17:59 68.6 °F 50.8 °F 29.94 in West 7.0 mph 16.0 mph 53% 0.00 in
18:04 68.7 °F 51.4 °F 29.94 in West 8.0 mph 16.0 mph 54% 0.00 in
18:09 69.0 °F 52.2 °F 29.94 in West 6.0 mph 16.0 mph 55% 0.00 in
18:14 68.5 °F 52.2 °F 29.94 in West 5.0 mph 11.0 mph 56% 0.00 in
18:20 67.8 °F 53.4 °F 29.95 in WSW 6.0 mph 14.0 mph 60% 0.00 in
18:25 67.4 °F 53.5 °F 29.94 in West 7.0 mph 18.0 mph 61% 0.00 in
18:29 67.4 °F 53.9 °F 29.95 in WSW 3.0 mph 13.0 mph 62% 0.00 in
18:34 68.0 °F 53.6 °F 29.95 in WSW 6.0 mph 19.0 mph 60% 0.00 in
18:39 68.2 °F 53.8 °F 29.95 in SW 9.0 mph 15.0 mph 60% 0.00 in
18:44 67.5 °F 54.0 °F 29.95 in WNW 6.0 mph 16.0 mph 62% 0.00 in
18:49 67.4 °F 54.4 °F 29.95 in WSW 8.0 mph 17.0 mph 63% 0.00 in
18:54 68.0 °F 54.5 °F 29.95 in WSW 8.0 mph 19.0 mph 62% 0.00 in
18:59 68.3 °F 54.8 °F 29.94 in WSW 8.0 mph 19.0 mph 62% 0.00 in
19:04 68.0 °F 54.0 °F 29.95 in WSW 8.0 mph 18.0 mph 61% 0.00 in
19:09 67.9 °F 54.0 °F 29.95 in WSW 14.0 mph 15.0 mph 61% 0.00 in
19:14 67.7 °F 53.8 °F 29.95 in West 5.0 mph 14.0 mph 61% 0.00 in
19:19 67.7 °F 54.2 °F 29.95 in WSW 9.0 mph 17.0 mph 62% 0.00 in
19:24 67.5 °F 54.0 °F 29.95 in WSW 8.0 mph 17.0 mph 62% 0.00 in
19:29 67.4 °F 54.4 °F 29.95 in WSW 8.0 mph 18.0 mph 63% 0.00 in
19:34 67.4 °F 54.4 °F 29.95 in WSW 7.0 mph 18.0 mph 63% 0.00 in
19:39 67.4 °F 54.8 °F 29.95 in WSW 7.0 mph 14.0 mph 64% 0.00 in
19:44 67.4 °F 54.8 °F 29.95 in West 6.0 mph 16.0 mph 64% 0.00 in
19:49 67.0 °F 54.4 °F 29.95 in SW 6.0 mph 15.0 mph 64% 0.00 in
19:54 67.0 °F 54.4 °F 29.95 in WSW 6.0 mph 13.0 mph 64% 0.00 in
19:59 67.0 °F 54.4 °F 29.95 in SW 7.0 mph 12.0 mph 64% 0.00 in
20:04 66.8 °F 54.2 °F 29.96 in West 11.0 mph 14.0 mph 64% 0.00 in
20:09 66.6 °F 54.0 °F 29.96 in West 3.0 mph 14.0 mph 64% 0.00 in
20:14 66.5 °F 54.4 °F 29.96 in WNW 6.0 mph 13.0 mph 65% 0.00 in
20:19 66.3 °F 54.6 °F 29.96 in West 7.0 mph 14.0 mph 66% 0.00 in
20:24 66.4 °F 54.3 °F 29.96 in WSW 6.0 mph 14.0 mph 65% 0.00 in
20:29 66.4 °F 54.3 °F 29.96 in WSW 6.0 mph 12.0 mph 65% 0.00 in
20:34 66.4 °F 53.4 °F 29.96 in West 6.0 mph 13.0 mph 63% 0.00 in
20:39 66.3 °F 53.3 °F 29.96 in West 5.0 mph 13.0 mph 63% 0.00 in
20:44 66.1 °F 53.6 °F 29.96 in SW 5.0 mph 11.0 mph 64% 0.00 in
20:49 65.8 °F 53.7 °F 29.96 in West 5.0 mph 11.0 mph 65% 0.00 in
20:54 65.6 °F 53.9 °F 29.96 in WSW 2.0 mph 8.0 mph 66% 0.00 in
20:59 65.4 °F 54.2 °F 29.96 in WSW 4.0 mph 8.0 mph 67% 0.00 in
21:04 65.2 °F 54.0 °F 29.96 in West 5.0 mph 9.0 mph 67% 0.00 in
21:09 65.1 °F 54.3 °F 29.96 in WNW 3.0 mph 7.0 mph 68% 0.00 in
21:14 64.8 °F 54.0 °F 29.96 in West 5.0 mph 7.0 mph 68% 0.00 in
21:19 64.8 °F 54.0 °F 29.97 in West 3.0 mph 7.0 mph 68% 0.00 in
21:24 64.6 °F 54.2 °F 29.97 in West 3.0 mph 7.0 mph 69% 0.00 in
21:29 64.4 °F 54.0 °F 29.97 in West 3.0 mph 7.0 mph 69% 0.00 in
21:34 64.3 °F 53.9 °F 29.97 in West 3.0 mph 7.0 mph 69% 0.00 in
21:39 64.4 °F 54.0 °F 29.97 in WSW 1.0 mph 5.0 mph 69% 0.00 in
21:44 64.5 °F 54.1 °F 29.97 in West 2.0 mph 7.0 mph 69% 0.00 in
21:49 64.5 °F 54.1 °F 29.97 in West 3.0 mph 8.0 mph 69% 0.00 in
21:54 64.6 °F 54.2 °F 29.97 in WSW 3.0 mph 8.0 mph 69% 0.00 in
21:59 64.6 °F 54.6 °F 29.97 in West 3.0 mph 8.0 mph 70% 0.00 in
22:04 64.5 °F 54.5 °F 29.98 in Calm   6.0 mph 70% 0.00 in
22:09 64.4 °F 54.4 °F 29.98 in WNW 1.0 mph 6.0 mph 70% 0.00 in
22:14 64.2 °F 54.2 °F 29.98 in WSW 5.0 mph 7.0 mph 70% 0.00 in
22:19 64.3 °F 53.9 °F 29.98 in West 4.0 mph 9.0 mph 69% 0.00 in
22:24 64.5 °F 53.3 °F 29.98 in WSW 4.0 mph 9.0 mph 67% 0.00 in
22:29 64.6 °F 53.0 °F 29.98 in West 4.0 mph 8.0 mph 66% 0.00 in
22:34 64.6 °F 53.0 °F 29.98 in SW 4.0 mph 6.0 mph 66% 0.00 in
22:39 64.7 °F 52.7 °F 29.98 in West 4.0 mph 6.0 mph 65% 0.00 in
22:44 64.5 °F 52.5 °F 29.98 in West 3.0 mph 9.0 mph 65% 0.00 in
22:49 64.6 °F 52.1 °F 29.98 in West 3.0 mph 9.0 mph 64% 0.00 in
22:54 64.5 °F 52.0 °F 29.98 in West 3.0 mph 8.0 mph 64% 0.00 in
22:59 64.5 °F 51.6 °F 29.98 in West 4.0 mph 8.0 mph 63% 0.00 in
23:04 64.5 °F 52.0 °F 29.98 in West 4.0 mph 9.0 mph 64% 0.00 in
23:09 64.4 °F 52.0 °F 29.98 in West 3.0 mph 6.0 mph 64% 0.00 in
23:14 64.4 °F 52.0 °F 29.98 in West 4.0 mph 8.0 mph 64% 0.00 in
23:19 64.3 °F 51.9 °F 29.98 in WSW 3.0 mph 10.0 mph 64% 0.00 in
23:24 64.3 °F 51.9 °F 29.98 in WSW 3.0 mph 6.0 mph 64% 0.00 in
23:29 64.3 °F 52.3 °F 29.98 in WSW 5.0 mph 5.0 mph 65% 0.00 in
23:34 64.3 °F 52.3 °F 29.98 in WSW 4.0 mph 9.0 mph 65% 0.00 in
23:39 64.3 °F 52.3 °F 29.98 in West 6.0 mph 9.0 mph 65% 0.00 in
23:44 64.3 °F 52.3 °F 29.98 in West 4.0 mph 9.0 mph 65% 0.00 in
23:49 64.2 °F 52.2 °F 29.98 in West 4.0 mph 9.0 mph 65% 0.00 in
23:54 64.2 °F 52.2 °F 29.98 in West 4.0 mph 11.0 mph 65% 0.00 in
23:59 64.2 °F 51.8 °F 29.98 in WSW 5.0 mph 11.0 mph 64% 0.00 in
Buffalo, New York, USA
Compliments of Weather Underground - 2.5 mb